createdAt,value
2022-09-15T00:01:54.900Z,0.57
2022-09-15T00:04:59.038Z,0.63
2022-09-15T00:08:03.014Z,0.90
2022-09-15T00:11:18.852Z,0.77
2022-09-15T00:14:22.332Z,0.80
2022-09-15T00:17:29.284Z,0.60
2022-09-15T00:20:32.896Z,0.80
2022-09-15T00:23:37.185Z,0.70
2022-09-15T00:26:40.864Z,0.90
2022-09-15T00:29:46.297Z,0.80
2022-09-15T00:32:49.926Z,0.90
2022-09-15T00:35:54.228Z,0.90
2022-09-15T00:38:58.384Z,0.70
2022-09-15T00:42:03.755Z,1.10
2022-09-15T00:45:14.139Z,0.80
2022-09-15T00:48:21.476Z,0.90
2022-09-15T00:51:33.037Z,0.70
2022-09-15T00:54:42.218Z,0.70
2022-09-15T00:57:53.792Z,1.08
2022-09-15T01:01:00.748Z,1.00
2022-09-15T01:04:04.520Z,1.17
2022-09-15T01:07:10.795Z,0.70
2022-09-15T01:10:22.493Z,0.90
2022-09-15T01:13:26.804Z,1.58
2022-09-15T01:16:33.486Z,0.80
2022-09-15T01:19:45.912Z,0.80
2022-09-15T01:22:53.053Z,0.90
2022-09-15T01:26:35.676Z,0.63
2022-09-15T01:29:54.469Z,1.10
2022-09-15T01:33:03.973Z,0.90
2022-09-15T01:36:25.211Z,0.93
2022-09-15T01:39:33.482Z,0.82
2022-09-15T01:42:45.183Z,1.08
2022-09-15T01:45:51.345Z,0.90
2022-09-15T01:48:57.051Z,0.70
2022-09-15T01:52:01.116Z,0.70
2022-09-15T01:55:12.052Z,1.00
2022-09-15T01:58:15.454Z,1.00
2022-09-15T02:01:26.601Z,1.25
2022-09-15T02:04:41.298Z,0.70
2022-09-15T02:08:08.931Z,0.93
2022-09-15T02:11:25.137Z,0.80
2022-09-15T02:15:05.433Z,1.00
2022-09-15T02:18:13.112Z,0.90
2022-09-15T02:21:21.863Z,0.80
2022-09-15T02:24:35.592Z,1.10
2022-09-15T02:28:04.697Z,0.85
2022-09-15T02:31:12.124Z,0.75
2022-09-15T02:34:31.716Z,0.93
2022-09-15T02:37:37.363Z,0.80
2022-09-15T02:40:44.863Z,0.90
2022-09-15T02:43:50.243Z,0.90
2022-09-15T02:46:53.820Z,1.15
2022-09-15T02:49:57.380Z,0.95
2022-09-15T02:53:00.943Z,1.20
2022-09-15T02:56:06.624Z,0.90
2022-09-15T02:59:10.264Z,1.20
2022-09-15T03:02:14.107Z,1.80
2022-09-15T03:05:20.067Z,1.70
2022-09-15T03:08:23.649Z,1.97
2022-09-15T03:11:29.357Z,3.15
2022-09-15T03:14:32.976Z,2.00
2022-09-15T03:17:37.984Z,2.08
2022-09-15T03:20:41.908Z,2.33
2022-09-15T03:23:45.821Z,2.20
2022-09-15T03:26:49.821Z,2.90
2022-09-15T03:29:53.941Z,3.05
2022-09-15T03:32:57.717Z,2.53
2022-09-15T03:36:01.508Z,2.40
2022-09-15T03:39:05.200Z,2.60
2022-09-15T03:42:08.773Z,6.60
2022-09-15T03:45:12.279Z,3.50
2022-09-15T03:48:15.897Z,2.00
2022-09-15T03:51:19.475Z,2.35
2022-09-15T03:54:22.893Z,1.90
2022-09-15T03:57:26.299Z,1.90
2022-09-15T04:00:29.956Z,2.03
2022-09-15T04:03:33.353Z,2.17
2022-09-15T04:06:37.477Z,2.20
2022-09-15T04:09:43.319Z,2.07
2022-09-15T04:12:49.224Z,2.15
2022-09-15T04:16:27.633Z,3.17
2022-09-15T04:19:31.019Z,2.30
2022-09-15T04:22:35.777Z,2.38
2022-09-15T04:25:39.292Z,2.10
2022-09-15T04:28:42.845Z,2.10
2022-09-15T04:31:47.240Z,2.20
2022-09-15T04:34:50.601Z,1.85
2022-09-15T04:37:55.508Z,2.40
2022-09-15T04:40:59.502Z,2.50
2022-09-15T04:44:03.185Z,2.72
2022-09-15T04:47:07.322Z,2.53
2022-09-15T04:50:11.089Z,3.10
2022-09-15T04:53:15.420Z,3.40
2022-09-15T04:56:22.588Z,3.10
2022-09-15T04:59:26.201Z,2.97
2022-09-15T05:02:30.092Z,3.75
2022-09-15T05:05:35.624Z,3.00
2022-09-15T05:08:39.446Z,4.05
2022-09-15T05:11:42.950Z,3.37
2022-09-15T05:14:46.367Z,3.72
2022-09-15T05:17:49.847Z,3.10
2022-09-15T05:21:02.214Z,1.80
2022-09-15T05:24:05.869Z,3.08
2022-09-15T05:27:09.351Z,3.47
2022-09-15T05:30:36.915Z,1.48
2022-09-15T05:33:37.977Z,2.10
2022-09-15T05:36:41.496Z,2.30
2022-09-15T05:39:44.827Z,1.52
2022-09-15T05:42:48.531Z,1.53
2022-09-15T05:45:55.655Z,1.25
2022-09-15T05:48:59.879Z,1.42
2022-09-15T05:52:11.328Z,1.30
2022-09-15T05:55:15.025Z,1.85
2022-09-15T05:58:18.692Z,1.47
2022-09-15T06:01:27.244Z,1.55
2022-09-15T06:04:30.980Z,2.40
2022-09-15T06:07:34.822Z,2.00
2022-09-15T06:10:39.269Z,1.63
2022-09-15T06:13:43.474Z,1.80
2022-09-15T06:16:46.844Z,1.60
2022-09-15T06:19:53.313Z,1.70
2022-09-15T06:22:57.224Z,1.60
2022-09-15T06:26:11.797Z,1.90
2022-09-15T06:29:15.842Z,1.67
2022-09-15T06:32:19.421Z,1.63
2022-09-15T06:35:23.262Z,2.08
2022-09-15T06:38:26.823Z,1.75
2022-09-15T06:41:42.616Z,2.15
2022-09-15T06:44:54.970Z,2.80
2022-09-15T06:48:20.584Z,2.03
2022-09-15T06:51:26.057Z,4.30
2022-09-15T06:54:29.461Z,2.95
2022-09-15T06:57:33.007Z,1.70
2022-09-15T07:00:37.501Z,2.37
2022-09-15T07:03:43.894Z,2.90
2022-09-15T07:06:47.380Z,1.38
2022-09-15T07:09:50.914Z,1.35
2022-09-15T07:12:59.138Z,1.58
2022-09-15T07:16:04.864Z,2.00
2022-09-15T07:19:09.430Z,2.13
2022-09-15T07:22:13.296Z,2.28
2022-09-15T07:25:17.381Z,1.98
2022-09-15T07:28:20.918Z,2.30
2022-09-15T07:31:26.987Z,1.80
2022-09-15T07:34:31.215Z,1.77
2022-09-15T07:37:35.983Z,2.10
2022-09-15T07:40:42.313Z,2.13
2022-09-15T07:43:51.016Z,2.30
2022-09-15T07:46:54.592Z,1.67
2022-09-15T07:49:58.380Z,2.90
2022-09-15T07:53:02.107Z,2.90
2022-09-15T07:56:06.856Z,1.67
2022-09-15T07:59:10.434Z,1.85
2022-09-15T08:02:18.756Z,2.27
2022-09-15T08:05:28.012Z,1.50
2022-09-15T08:08:33.891Z,2.22
2022-09-15T08:11:37.713Z,2.33
2022-09-15T08:14:42.163Z,1.95
2022-09-15T08:17:46.683Z,2.20
2022-09-15T08:20:50.197Z,2.03
2022-09-15T08:23:58.991Z,2.60
2022-09-15T08:27:02.851Z,1.30
2022-09-15T08:30:07.499Z,5.32
2022-09-15T08:33:14.271Z,2.10
2022-09-15T08:36:18.129Z,1.75
2022-09-15T08:39:21.920Z,1.80
2022-09-15T08:42:29.340Z,1.50
2022-09-15T08:45:43.828Z,3.35
2022-09-15T08:48:59.583Z,1.90
2022-09-15T08:52:21.251Z,1.60
2022-09-15T08:55:31.285Z,2.17
2022-09-15T08:58:41.220Z,1.50
2022-09-15T09:02:21.931Z,1.80
2022-09-15T09:06:00.938Z,1.93
2022-09-15T09:09:19.693Z,1.58
2022-09-15T09:12:46.767Z,1.65
2022-09-15T09:16:18.025Z,1.77
2022-09-15T09:19:26.351Z,2.38
2022-09-15T09:22:36.027Z,3.57
2022-09-15T09:25:40.276Z,2.40
2022-09-15T09:29:19.158Z,3.90
2022-09-15T09:32:31.116Z,3.40
2022-09-15T09:35:52.327Z,2.10
2022-09-15T09:38:56.897Z,2.33
2022-09-15T09:42:00.737Z,1.60
2022-09-15T09:45:19.342Z,1.80
2022-09-15T09:48:26.294Z,1.98
2022-09-15T09:51:32.102Z,2.03
2022-09-15T09:54:37.973Z,1.30
2022-09-15T09:57:41.899Z,1.52
2022-09-15T10:00:52.957Z,1.73
2022-09-15T10:04:16.934Z,2.40
2022-09-15T10:07:24.527Z,1.35
2022-09-15T10:10:32.452Z,1.87
2022-09-15T10:13:49.673Z,2.08
2022-09-15T10:17:09.023Z,2.20
2022-09-15T10:20:25.513Z,2.28
2022-09-15T10:23:31.720Z,1.60
2022-09-15T10:26:35.763Z,1.60
2022-09-15T10:29:39.831Z,1.90
2022-09-15T10:32:44.238Z,1.40
2022-09-15T10:35:47.936Z,1.50
2022-09-15T10:39:12.582Z,2.33
2022-09-15T10:42:23.939Z,1.80
2022-09-15T10:45:34.408Z,1.33
2022-09-15T10:48:44.945Z,1.40
2022-09-15T10:52:06.367Z,1.42
2022-09-15T10:55:48.902Z,1.55
2022-09-15T10:59:22.025Z,1.50
2022-09-15T11:02:37.399Z,1.23
2022-09-15T11:05:43.702Z,1.30
2022-09-15T11:08:57.054Z,1.85
2022-09-15T11:12:12.462Z,1.20
2022-09-15T11:15:25.287Z,1.60
2022-09-15T11:18:55.381Z,1.33
2022-09-15T11:22:35.761Z,1.40
2022-09-15T11:25:52.964Z,1.85
2022-09-15T11:28:59.528Z,1.52
2022-09-15T11:32:25.901Z,1.10
2022-09-15T11:35:47.840Z,1.80
2022-09-15T11:39:16.511Z,1.20
2022-09-15T11:42:32.656Z,1.30
2022-09-15T11:45:41.614Z,1.30
2022-09-15T11:49:13.876Z,1.53
2022-09-15T11:52:23.534Z,1.50
2022-09-15T11:56:00.259Z,1.60
2022-09-15T11:59:23.188Z,2.15
2022-09-15T12:02:46.063Z,1.48
2022-09-15T12:06:16.801Z,1.90
2022-09-15T12:09:22.071Z,2.00
2022-09-15T12:12:29.347Z,2.50
2022-09-15T12:15:34.574Z,1.60
2022-09-15T12:18:55.304Z,1.67
2022-09-15T12:22:05.114Z,1.90
2022-09-15T12:25:42.884Z,1.50
2022-09-15T12:29:23.948Z,1.40
2022-09-15T12:32:33.247Z,1.23
2022-09-15T12:35:38.205Z,2.03
2022-09-15T12:38:48.853Z,1.90
2022-09-15T12:41:59.753Z,1.67
2022-09-15T12:45:06.756Z,1.33
2022-09-15T12:48:20.903Z,1.67
2022-09-15T12:51:28.220Z,1.40
2022-09-15T12:54:34.628Z,1.30
2022-09-15T12:57:38.113Z,1.25
2022-09-15T13:01:07.110Z,1.55
2022-09-15T13:04:22.879Z,1.40
2022-09-15T13:07:34.800Z,1.40
2022-09-15T13:10:43.614Z,1.40
2022-09-15T13:13:50.328Z,1.83
2022-09-15T13:17:03.820Z,1.10
2022-09-15T13:20:15.448Z,1.25
2022-09-15T13:23:24.156Z,1.42
2022-09-15T13:26:32.054Z,1.33
2022-09-15T13:29:54.771Z,1.77
2022-09-15T13:40:59.176Z,1.15
2022-09-15T13:44:31.261Z,1.00
2022-09-15T13:47:54.012Z,1.00
2022-09-15T13:51:01.065Z,1.27
2022-09-15T13:54:14.189Z,1.05
2022-09-15T13:57:17.870Z,1.15
2022-09-15T14:00:33.887Z,1.10
2022-09-15T14:03:42.466Z,0.88
2022-09-15T14:06:57.091Z,0.90
2022-09-15T14:10:04.149Z,1.02
2022-09-15T14:13:13.234Z,1.40
2022-09-15T14:16:29.137Z,1.00
2022-09-15T14:19:39.733Z,1.35
2022-09-15T14:22:48.152Z,1.00
2022-09-15T14:25:51.503Z,1.58
2022-09-15T14:28:58.899Z,1.15
2022-09-15T14:32:03.936Z,0.83
2022-09-15T14:35:09.539Z,0.82
2022-09-15T14:38:25.591Z,1.30
2022-09-15T14:41:32.804Z,1.08
2022-09-15T14:48:16.619Z,1.03
2022-09-15T14:51:32.974Z,1.30
2022-09-15T14:54:39.021Z,1.20
2022-09-15T14:57:48.782Z,0.90
2022-09-15T15:01:02.798Z,1.23
2022-09-15T15:04:24.473Z,1.30
2022-09-15T15:07:31.083Z,0.95
2022-09-15T15:10:36.079Z,1.00
2022-09-15T15:13:42.657Z,0.88
2022-09-15T15:17:02.173Z,1.00
2022-09-15T15:20:09.600Z,1.13
2022-09-15T15:23:20.270Z,1.40
2022-09-15T15:26:36.557Z,1.35
2022-09-15T15:29:46.091Z,1.52
2022-09-15T15:32:49.586Z,3.30
2022-09-15T15:36:07.704Z,1.57
2022-09-15T15:39:24.399Z,1.90
2022-09-15T15:42:29.094Z,1.45
2022-09-15T15:45:34.798Z,1.27
2022-09-15T15:48:38.547Z,1.13
2022-09-15T15:51:42.459Z,0.73
2022-09-15T15:54:45.545Z,0.90
2022-09-15T15:57:51.320Z,1.40
2022-09-15T16:00:56.742Z,0.70
2022-09-15T16:04:00.059Z,0.77
2022-09-15T16:07:03.971Z,0.97
2022-09-15T16:10:08.354Z,0.88
2022-09-15T16:13:16.936Z,1.08
2022-09-15T16:16:23.543Z,1.40
2022-09-15T16:19:26.676Z,1.10
2022-09-15T16:22:30.133Z,0.87
2022-09-15T16:25:35.667Z,0.88
2022-09-15T16:28:39.143Z,1.13
2022-09-15T16:31:42.997Z,1.17
2022-09-15T16:34:46.651Z,0.73
2022-09-15T16:37:49.866Z,0.60
2022-09-15T16:40:53.609Z,0.80
2022-09-15T16:43:56.809Z,0.80
2022-09-15T16:47:00.164Z,0.60
2022-09-15T16:50:04.337Z,0.80
2022-09-15T16:53:17.831Z,1.00
2022-09-15T16:56:21.114Z,0.70
2022-09-15T16:59:24.813Z,0.73
2022-09-15T17:02:28.000Z,0.70
2022-09-15T17:05:34.635Z,0.80
2022-09-15T17:08:37.801Z,1.27
2022-09-15T17:11:40.991Z,1.15
2022-09-15T17:14:44.120Z,1.02
2022-09-15T17:17:47.618Z,1.27
2022-09-15T17:20:52.031Z,0.93
2022-09-15T17:23:55.227Z,1.27
2022-09-15T17:26:58.274Z,0.90
2022-09-15T17:30:01.459Z,1.25
2022-09-15T17:33:15.599Z,1.40
2022-09-15T17:36:19.283Z,1.00
2022-09-15T17:39:22.512Z,1.23
2022-09-15T17:42:25.796Z,1.45
2022-09-15T17:45:33.124Z,1.00
2022-09-15T17:48:38.607Z,0.82
2022-09-15T17:51:44.460Z,1.08
2022-09-15T17:54:47.952Z,0.73
2022-09-15T17:57:51.361Z,1.23
2022-09-15T18:00:55.101Z,1.00
2022-09-15T18:03:58.360Z,1.27
2022-09-15T18:07:01.471Z,1.15
2022-09-15T18:10:05.283Z,0.73
2022-09-15T18:13:12.881Z,0.82
2022-09-15T18:16:16.347Z,1.10
2022-09-15T18:19:19.565Z,1.83
2022-09-15T18:22:25.195Z,1.40
2022-09-15T18:25:36.895Z,0.77
2022-09-15T18:28:40.080Z,0.70
2022-09-15T18:31:44.895Z,0.90
2022-09-15T18:34:49.024Z,0.95
2022-09-15T18:37:57.662Z,0.65
2022-09-15T18:41:01.460Z,0.73
2022-09-15T18:44:04.779Z,0.90
2022-09-15T18:47:07.898Z,0.73
2022-09-15T18:50:13.062Z,0.90
2022-09-15T18:53:16.205Z,0.85
2022-09-15T18:56:19.320Z,0.90
2022-09-15T18:59:22.507Z,0.90
2022-09-15T19:02:25.874Z,0.60
2022-09-15T19:05:31.295Z,0.73
2022-09-15T19:08:36.831Z,0.60
2022-09-15T19:11:40.008Z,0.60
2022-09-15T19:14:46.071Z,1.05
2022-09-15T19:17:49.873Z,0.50
2022-09-15T19:20:53.583Z,0.50
2022-09-15T19:23:58.340Z,0.63
2022-09-15T19:27:06.259Z,0.70
2022-09-15T19:30:10.963Z,0.47
2022-09-15T19:33:14.359Z,0.90
2022-09-15T19:36:27.973Z,0.68
2022-09-15T19:39:32.364Z,0.40
2022-09-15T19:42:36.400Z,0.80
2022-09-15T19:45:43.518Z,0.60
2022-09-15T19:48:49.967Z,0.80
2022-09-15T19:51:57.184Z,0.60
2022-09-15T19:55:00.640Z,0.90
2022-09-15T19:58:03.798Z,0.60
2022-09-15T20:01:09.101Z,0.70
2022-09-15T20:04:13.195Z,1.50
2022-09-15T20:07:16.322Z,0.68
2022-09-15T20:10:19.480Z,1.00
2022-09-15T20:13:22.572Z,0.80
2022-09-15T20:16:26.175Z,0.90
2022-09-15T20:19:29.918Z,0.60
2022-09-15T20:22:33.070Z,0.70
2022-09-15T20:25:36.259Z,0.70
2022-09-15T20:28:39.685Z,0.63
2022-09-15T20:31:43.072Z,0.57
2022-09-15T20:34:49.163Z,0.45
2022-09-15T20:37:56.434Z,0.50
2022-09-15T20:41:00.891Z,0.68
2022-09-15T20:44:05.948Z,0.47
2022-09-15T20:47:09.120Z,0.45
2022-09-15T20:50:13.425Z,0.68
2022-09-15T20:53:16.615Z,0.40
2022-09-15T20:56:24.704Z,0.70
2022-09-15T20:59:28.714Z,0.67
2022-09-15T21:02:31.939Z,0.80
2022-09-15T21:05:35.094Z,0.60
2022-09-15T21:08:38.900Z,0.60
2022-09-15T21:11:43.401Z,1.08
2022-09-15T21:14:46.452Z,0.43
2022-09-15T21:17:49.890Z,0.63
2022-09-15T21:20:57.951Z,0.88
2022-09-15T21:24:06.094Z,0.40
2022-09-15T21:27:27.427Z,1.17
2022-09-15T21:30:30.527Z,0.70
2022-09-15T21:33:34.681Z,0.68
2022-09-15T21:36:38.083Z,0.73
2022-09-15T21:39:44.013Z,1.50
2022-09-15T21:42:47.342Z,1.17
2022-09-15T21:45:58.499Z,1.00
2022-09-15T21:49:01.825Z,0.63
2022-09-15T21:52:04.943Z,1.20
2022-09-15T21:55:08.343Z,0.88
2022-09-15T21:58:11.753Z,0.60
2022-09-15T22:01:18.855Z,0.53
2022-09-15T22:04:22.135Z,0.88
2022-09-15T22:07:25.474Z,0.80
2022-09-15T22:10:31.456Z,0.90
2022-09-15T22:13:37.018Z,0.60
2022-09-15T22:16:41.658Z,0.73
2022-09-15T22:19:44.901Z,1.10
2022-09-15T22:22:48.499Z,0.80
2022-09-15T22:25:51.718Z,0.88
2022-09-15T22:28:55.478Z,1.42
2022-09-15T22:31:58.664Z,0.60
2022-09-15T22:35:01.884Z,0.57
2022-09-15T22:38:05.078Z,0.82
2022-09-15T22:41:12.107Z,1.00
2022-09-15T22:44:20.443Z,0.45
2022-09-15T22:47:23.821Z,1.47
2022-09-15T22:50:27.117Z,1.50
2022-09-15T22:53:30.560Z,0.77
2022-09-15T22:56:33.806Z,0.63
2022-09-15T22:59:37.354Z,0.75
2022-09-15T23:02:40.579Z,0.47
2022-09-15T23:05:43.760Z,0.50
2022-09-15T23:08:51.384Z,0.50
2022-09-15T23:11:54.746Z,0.60
2022-09-15T23:14:57.916Z,0.73
2022-09-15T23:18:01.030Z,0.67
2022-09-15T23:21:10.461Z,0.65
2022-09-15T23:24:14.036Z,0.68
2022-09-15T23:27:17.278Z,0.50
2022-09-15T23:30:21.102Z,0.73
2022-09-15T23:33:26.020Z,1.00
2022-09-15T23:36:29.490Z,0.88
2022-09-15T23:39:35.358Z,0.80
2022-09-15T23:42:39.725Z,0.70
2022-09-15T23:45:43.722Z,0.90
2022-09-15T23:48:46.968Z,0.77
2022-09-15T23:51:50.140Z,0.52
2022-09-15T23:54:53.268Z,0.90
2022-09-15T23:57:56.811Z,0.80
